createdAt,value
2022-08-05T00:01:27.996Z,4.63
2022-08-05T00:03:56.964Z,4.93
2022-08-05T00:06:32.366Z,4.68
2022-08-05T00:09:00.766Z,3.92
2022-08-05T00:11:34.633Z,4.40
2022-08-05T00:14:12.870Z,4.47
2022-08-05T00:16:53.107Z,4.80
2022-08-05T00:19:24.951Z,4.95
2022-08-05T00:22:00.224Z,4.90
2022-08-05T00:24:30.954Z,4.32
2022-08-05T00:26:59.068Z,4.93
2022-08-05T00:29:26.222Z,5.28
2022-08-05T00:32:10.495Z,5.22
2022-08-05T00:35:04.446Z,4.93
2022-08-05T00:37:35.770Z,5.40
2022-08-05T00:40:26.639Z,5.10
2022-08-05T00:42:57.263Z,5.78
2022-08-05T00:45:28.143Z,4.95
2022-08-05T00:48:10.091Z,5.90
2022-08-05T00:50:37.892Z,5.53
2022-08-05T00:53:09.941Z,5.75
2022-08-05T00:55:51.872Z,6.10
2022-08-05T00:58:19.031Z,5.78
2022-08-05T01:00:47.807Z,5.75
2022-08-05T01:03:22.907Z,5.45
2022-08-05T01:05:51.148Z,5.47
2022-08-05T01:08:40.803Z,5.53
2022-08-05T01:11:33.685Z,5.43
2022-08-05T01:14:10.480Z,5.30
2022-08-05T01:16:56.933Z,5.60
2022-08-05T01:19:46.195Z,5.20
2022-08-05T01:22:34.906Z,5.28
2022-08-05T01:25:21.033Z,4.90
2022-08-05T01:28:22.683Z,5.05
2022-08-05T01:31:03.020Z,4.50
2022-08-05T01:33:38.190Z,4.80
2022-08-05T01:36:16.016Z,5.10
2022-08-05T01:38:46.358Z,4.85
2022-08-05T01:41:18.193Z,5.38
2022-08-05T01:43:50.836Z,5.50
2022-08-05T01:46:42.396Z,4.88
2022-08-05T01:49:23.236Z,5.18
2022-08-05T01:51:58.448Z,5.18
2022-08-05T01:54:31.516Z,5.53
2022-08-05T01:58:13.576Z,4.95
2022-08-05T01:59:50.858Z,5.20
2022-08-05T02:02:20.362Z,5.47
2022-08-05T02:04:59.901Z,5.25
2022-08-05T02:07:30.453Z,5.03
2022-08-05T02:09:57.962Z,5.28
2022-08-05T02:12:51.029Z,6.28
2022-08-05T02:15:24.650Z,5.78
2022-08-05T02:18:35.212Z,5.55
2022-08-05T02:21:15.531Z,5.43
2022-08-05T02:23:48.525Z,5.85
2022-08-05T02:26:22.060Z,6.18
2022-08-05T02:28:50.429Z,6.15
2022-08-05T02:31:26.565Z,5.43
2022-08-05T02:33:59.700Z,5.70
2022-08-05T02:36:31.473Z,5.50
2022-08-05T02:38:59.982Z,5.32
2022-08-05T02:41:42.893Z,5.07
2022-08-05T02:44:19.137Z,4.72
2022-08-05T02:46:53.312Z,4.45
2022-08-05T02:49:36.958Z,4.68
2022-08-05T02:52:07.907Z,4.80
2022-08-05T02:54:37.646Z,4.70
2022-08-05T02:58:10.885Z,4.50
2022-08-05T03:00:01.602Z,4.38
2022-08-05T03:02:33.886Z,4.55
2022-08-05T03:05:02.025Z,4.25
2022-08-05T03:07:59.413Z,4.60
2022-08-05T03:10:24.373Z,4.68
2022-08-05T03:12:52.423Z,4.85
2022-08-05T03:15:21.427Z,4.85
2022-08-05T03:17:54.166Z,4.70
2022-08-05T03:20:23.689Z,5.50
2022-08-05T03:22:52.114Z,4.80
2022-08-05T03:25:32.657Z,4.30
2022-08-05T03:28:03.100Z,4.72
2022-08-05T03:30:34.800Z,4.63
2022-08-05T03:33:07.270Z,5.13
2022-08-05T03:35:41.269Z,4.85
2022-08-05T03:38:11.367Z,4.90
2022-08-05T03:40:48.428Z,4.85
2022-08-05T03:44:09.467Z,4.30
2022-08-05T03:46:04.884Z,4.40
2022-08-05T03:48:35.078Z,4.50
2022-08-05T03:52:36.557Z,4.15
2022-08-05T03:55:53.870Z,4.28
2022-08-05T03:59:55.794Z,3.80
2022-08-05T04:02:38.229Z,3.38
2022-08-05T04:05:13.050Z,4.32
2022-08-05T04:07:57.097Z,4.10
2022-08-05T04:10:28.434Z,3.97
2022-08-05T04:13:00.081Z,4.35
2022-08-05T04:15:33.255Z,4.22
2022-08-05T04:18:09.263Z,4.50
2022-08-05T04:20:36.819Z,4.82
2022-08-05T04:23:03.976Z,4.43
2022-08-05T04:25:49.441Z,4.65
2022-08-05T04:28:30.959Z,4.03
2022-08-05T04:31:01.173Z,3.97
2022-08-05T04:33:36.360Z,3.92
2022-08-05T04:36:45.872Z,3.92
2022-08-05T04:39:06.012Z,3.42
2022-08-05T04:41:37.297Z,4.00
2022-08-05T04:44:08.911Z,3.97
2022-08-05T04:46:37.627Z,3.67
2022-08-05T04:49:14.436Z,3.60
2022-08-05T04:51:43.508Z,3.85
2022-08-05T04:54:10.315Z,4.10
2022-08-05T04:56:39.052Z,4.10
2022-08-05T04:59:22.461Z,3.75
2022-08-05T05:02:35.604Z,4.22
2022-08-05T05:04:47.521Z,3.88
2022-08-05T05:07:15.796Z,4.18
2022-08-05T05:09:44.527Z,3.55
2022-08-05T05:12:11.579Z,3.80
2022-08-05T05:14:49.204Z,3.50
2022-08-05T05:17:24.311Z,3.10
2022-08-05T05:19:56.511Z,3.25
2022-08-05T05:22:26.468Z,3.33
2022-08-05T05:24:59.971Z,3.15
2022-08-05T05:27:44.376Z,3.53
2022-08-05T05:30:15.760Z,3.38
2022-08-05T05:33:01.036Z,3.05
2022-08-05T05:35:37.772Z,2.78
2022-08-05T05:38:09.114Z,2.83
2022-08-05T05:40:48.265Z,2.80
2022-08-05T05:43:54.000Z,2.72
2022-08-05T05:48:47.949Z,2.38
2022-08-05T05:51:20.397Z,1.83
2022-08-05T05:53:57.446Z,1.92
2022-08-05T05:56:32.528Z,1.83
2022-08-05T05:59:06.548Z,2.08
2022-08-05T06:01:37.783Z,1.70
2022-08-05T06:04:11.809Z,1.92
2022-08-05T06:06:41.983Z,1.77
2022-08-05T06:09:17.429Z,1.85
2022-08-05T06:12:01.852Z,1.88
2022-08-05T06:14:33.289Z,1.48
2022-08-05T06:17:24.209Z,1.65
2022-08-05T06:19:56.743Z,1.85
2022-08-05T06:22:34.276Z,1.70
2022-08-05T06:25:59.122Z,1.55
2022-08-05T06:28:12.714Z,1.52
2022-08-05T06:30:38.864Z,1.70
2022-08-05T06:33:09.927Z,1.42
2022-08-05T06:36:04.116Z,1.30
2022-08-05T06:38:36.456Z,1.30
2022-08-05T06:41:04.732Z,1.30
2022-08-05T06:43:57.664Z,1.30
2022-08-05T06:46:18.400Z,1.25
2022-08-05T06:48:55.308Z,1.05
2022-08-05T06:51:30.225Z,1.27
2022-08-05T06:54:02.511Z,1.10
2022-08-05T06:56:30.283Z,1.13
2022-08-05T06:59:02.289Z,1.50
2022-08-05T07:01:32.487Z,1.40
2022-08-05T07:04:02.320Z,1.48
2022-08-05T07:06:29.910Z,1.17
2022-08-05T07:08:59.106Z,1.00
2022-08-05T07:11:28.610Z,1.15
2022-08-05T07:14:20.236Z,1.20
2022-08-05T07:17:57.135Z,0.93
2022-08-05T07:22:29.151Z,0.80
2022-08-05T07:25:21.780Z,1.15
2022-08-05T07:27:57.637Z,1.00
2022-08-05T07:30:34.685Z,0.90
2022-08-05T07:33:09.381Z,0.73
2022-08-05T07:38:33.599Z,0.93
2022-08-05T07:42:07.355Z,0.77
2022-08-05T07:46:28.174Z,0.90
2022-08-05T07:49:01.747Z,0.90
2022-08-05T07:51:40.178Z,0.90
2022-08-05T07:54:09.719Z,1.00
2022-08-05T07:57:00.264Z,0.77
2022-08-05T07:59:39.047Z,1.05
2022-08-05T08:02:16.169Z,0.77
2022-08-05T08:04:48.780Z,1.27
2022-08-05T08:07:18.422Z,1.00
2022-08-05T08:09:53.036Z,1.30
2022-08-05T08:12:37.319Z,1.20
2022-08-05T08:15:13.888Z,1.00
2022-08-05T08:17:46.046Z,1.48
2022-08-05T08:20:42.649Z,1.08
2022-08-05T08:23:04.527Z,1.20
2022-08-05T08:25:58.869Z,0.95
2022-08-05T08:28:36.118Z,1.00
2022-08-05T08:31:04.782Z,0.70
2022-08-05T08:33:38.063Z,0.70
2022-08-05T08:36:39.213Z,0.63
2022-08-05T08:38:57.378Z,1.00
2022-08-05T08:41:50.829Z,1.05
2022-08-05T08:45:20.089Z,1.02
2022-08-05T08:47:46.992Z,0.90
2022-08-05T08:50:05.774Z,0.90
2022-08-05T08:52:53.138Z,0.90
2022-08-05T08:56:02.076Z,1.00
2022-08-05T08:58:09.587Z,0.88
2022-08-05T09:00:36.756Z,0.82
2022-08-05T09:03:06.836Z,0.90
2022-08-05T09:05:38.782Z,0.70
2022-08-05T09:08:26.618Z,0.90
2022-08-05T09:10:54.334Z,1.10
2022-08-05T09:13:23.592Z,1.10
2022-08-05T09:15:51.275Z,0.77
2022-08-05T09:18:18.543Z,0.70
2022-08-05T09:20:47.085Z,0.80
2022-08-05T09:23:19.450Z,0.77
2022-08-05T09:26:06.472Z,1.05
2022-08-05T09:28:35.198Z,0.88
2022-08-05T09:31:22.408Z,0.90
2022-08-05T09:34:06.678Z,0.90
2022-08-05T09:36:55.589Z,0.82
2022-08-05T09:39:41.518Z,1.00
2022-08-05T09:42:17.248Z,0.98
2022-08-05T09:44:50.631Z,0.98
2022-08-05T09:47:21.857Z,0.88
2022-08-05T09:50:00.487Z,0.70
2022-08-05T09:52:29.259Z,1.00
2022-08-05T09:55:56.714Z,0.90
2022-08-05T09:57:54.845Z,0.85
2022-08-05T10:00:26.403Z,0.88
2022-08-05T10:02:54.944Z,1.00
2022-08-05T10:05:32.757Z,0.80
2022-08-05T10:08:35.353Z,0.90
2022-08-05T10:10:54.191Z,0.80
2022-08-05T10:13:44.152Z,0.65
2022-08-05T10:16:34.291Z,0.65
2022-08-05T10:19:10.009Z,0.68
2022-08-05T10:21:40.507Z,0.80
2022-08-05T10:24:13.263Z,0.80
2022-08-05T10:26:49.057Z,0.63
2022-08-05T10:30:06.937Z,0.75
2022-08-05T10:32:52.052Z,0.80
2022-08-05T10:35:00.974Z,1.10
2022-08-05T10:37:40.338Z,0.68
2022-08-05T10:40:40.503Z,0.70
2022-08-05T10:43:31.101Z,0.95
2022-08-05T10:46:07.099Z,1.10
2022-08-05T10:48:52.713Z,0.68
2022-08-05T10:51:29.291Z,0.90
2022-08-05T10:53:58.343Z,0.85
2022-08-05T10:56:28.182Z,0.70
2022-08-05T10:58:55.868Z,1.00
2022-08-05T11:02:03.758Z,1.05
2022-08-05T11:04:32.112Z,0.70
2022-08-05T11:07:06.506Z,0.70
2022-08-05T11:09:46.730Z,0.95
2022-08-05T11:12:38.227Z,0.70
2022-08-05T11:16:01.007Z,0.80
2022-08-05T11:18:32.651Z,0.70
2022-08-05T11:21:06.367Z,0.68
2022-08-05T11:24:03.010Z,0.70
2022-08-05T11:26:38.019Z,0.80
2022-08-05T11:29:13.921Z,0.85
2022-08-05T11:31:58.293Z,0.77
2022-08-05T11:34:39.882Z,0.80
2022-08-05T11:38:28.186Z,0.70
2022-08-05T11:41:12.843Z,0.70
2022-08-05T11:44:04.513Z,0.50
2022-08-05T11:46:37.475Z,0.80
2022-08-05T11:49:10.173Z,0.80
2022-08-05T11:51:44.743Z,0.60
2022-08-05T11:54:33.308Z,0.65
2022-08-05T11:57:08.061Z,0.70
2022-08-05T11:59:51.741Z,0.60
2022-08-05T12:02:31.409Z,0.73
2022-08-05T12:05:06.884Z,0.57
2022-08-05T12:08:07.388Z,0.60
2022-08-05T12:10:43.301Z,0.60
2022-08-05T12:13:28.091Z,0.68
2022-08-05T12:16:14.786Z,0.60
2022-08-05T12:18:52.317Z,0.60
2022-08-05T12:21:29.744Z,0.65
2022-08-05T12:24:22.379Z,0.60
2022-08-05T12:26:53.863Z,0.80
2022-08-05T12:29:23.515Z,0.65
2022-08-05T12:31:58.124Z,0.80
2022-08-05T12:34:35.690Z,0.88
2022-08-05T12:37:10.914Z,0.88
2022-08-05T12:39:48.511Z,0.60
2022-08-05T12:42:19.952Z,0.60
2022-08-05T12:44:47.618Z,0.60
2022-08-05T12:47:26.779Z,0.63
2022-08-05T12:50:03.065Z,1.00
2022-08-05T12:52:39.267Z,0.68
2022-08-05T12:55:22.139Z,0.60
2022-08-05T12:58:51.531Z,0.77
2022-08-05T13:02:05.834Z,0.80
2022-08-05T13:03:32.428Z,0.70
2022-08-05T13:06:03.087Z,0.60
2022-08-05T13:08:33.021Z,0.50
2022-08-05T13:11:04.099Z,0.50
2022-08-05T13:14:06.089Z,0.70
2022-08-05T13:16:19.612Z,0.73
2022-08-05T13:18:55.037Z,0.90
2022-08-05T13:21:27.782Z,0.60
2022-08-05T13:23:55.841Z,0.85
2022-08-05T13:26:30.164Z,1.00
2022-08-05T13:28:57.648Z,0.98
2022-08-05T13:32:02.910Z,0.95
2022-08-05T13:34:25.622Z,1.02
2022-08-05T13:36:56.196Z,1.00
2022-08-05T13:39:24.638Z,1.23
2022-08-05T13:42:14.215Z,0.90
2022-08-05T13:44:46.013Z,0.93
2022-08-05T13:47:35.982Z,1.02
2022-08-05T13:50:04.768Z,0.88
2022-08-05T13:52:35.259Z,1.30
2022-08-05T13:55:07.238Z,0.95
2022-08-05T13:57:50.921Z,1.27
2022-08-05T14:00:27.612Z,1.00
2022-08-05T14:02:56.528Z,0.93
2022-08-05T14:05:29.466Z,0.90
2022-08-05T14:08:20.300Z,1.00
2022-08-05T14:11:03.178Z,1.10
2022-08-05T14:13:41.641Z,1.00
2022-08-05T14:16:11.514Z,1.00
2022-08-05T14:18:38.560Z,1.13
2022-08-05T14:22:08.180Z,1.10
2022-08-05T14:23:52.349Z,0.90
2022-08-05T14:26:38.555Z,1.45
2022-08-05T14:29:16.498Z,1.10
2022-08-05T14:32:02.536Z,1.00
2022-08-05T14:34:35.387Z,1.10
2022-08-05T14:37:03.407Z,1.50
2022-08-05T14:39:32.061Z,0.90
2022-08-05T14:42:20.918Z,1.27
2022-08-05T14:44:49.242Z,1.10
2022-08-05T14:47:16.089Z,1.20
2022-08-05T14:49:59.704Z,1.00
2022-08-05T14:52:52.045Z,1.00
2022-08-05T14:55:16.544Z,0.80
2022-08-05T15:00:28.190Z,1.13
2022-08-05T15:02:56.546Z,1.30
2022-08-05T15:05:29.541Z,1.40
2022-08-05T15:08:06.697Z,1.00
2022-08-05T15:10:41.395Z,1.52
2022-08-05T15:13:10.096Z,1.20
2022-08-05T15:15:53.862Z,1.35
2022-08-05T15:18:25.021Z,1.27
2022-08-05T15:20:54.085Z,1.40
2022-08-05T15:23:20.838Z,1.10
2022-08-05T15:25:52.073Z,1.48
2022-08-05T15:28:27.014Z,1.23
2022-08-05T15:30:54.933Z,1.70
2022-08-05T15:34:05.941Z,1.50
2022-08-05T15:36:17.301Z,1.63
2022-08-05T15:40:41.020Z,1.65
2022-08-05T15:41:55.501Z,1.70
2022-08-05T15:44:24.912Z,1.50
2022-08-05T15:46:55.791Z,1.58
2022-08-05T15:49:40.839Z,1.20
2022-08-05T15:52:29.034Z,1.40
2022-08-05T15:54:56.539Z,1.40
2022-08-05T15:57:23.667Z,1.58
2022-08-05T15:59:56.465Z,1.60
2022-08-05T16:02:27.034Z,1.45
2022-08-05T16:04:55.888Z,1.50
2022-08-05T16:07:23.029Z,1.60
2022-08-05T16:09:49.977Z,1.40
2022-08-05T16:12:19.791Z,1.45
2022-08-05T16:14:46.806Z,1.30
2022-08-05T16:17:13.537Z,1.40
2022-08-05T16:20:05.013Z,1.50
2022-08-05T16:22:33.850Z,1.63
2022-08-05T16:25:09.845Z,1.60
2022-08-05T16:27:59.911Z,1.58
2022-08-05T16:30:26.233Z,1.30
2022-08-05T16:32:55.647Z,1.50
2022-08-05T16:35:27.877Z,1.33
2022-08-05T16:38:02.896Z,1.23
2022-08-05T16:40:47.801Z,1.60
2022-08-05T16:43:25.044Z,1.33
2022-08-05T16:46:03.933Z,1.20
2022-08-05T16:48:35.732Z,1.20
2022-08-05T16:51:09.156Z,1.38
2022-08-05T16:54:04.215Z,1.45
2022-08-05T16:56:27.519Z,1.42
2022-08-05T16:58:54.352Z,1.23
2022-08-05T17:01:21.234Z,1.52
2022-08-05T17:03:51.810Z,1.60
2022-08-05T17:06:19.298Z,1.50
2022-08-05T17:08:52.840Z,1.30
2022-08-05T17:11:25.694Z,1.08
2022-08-05T17:14:05.156Z,1.70
2022-08-05T17:16:38.407Z,1.42
2022-08-05T17:19:07.861Z,1.35
2022-08-05T17:24:28.145Z,1.60
2022-08-05T17:26:55.283Z,1.20
2022-08-05T17:29:33.973Z,1.50
2022-08-05T17:32:11.427Z,1.35
2022-08-05T17:34:43.779Z,1.52
2022-08-05T17:37:32.092Z,1.23
2022-08-05T17:39:59.809Z,1.80
2022-08-05T17:42:31.858Z,1.58
2022-08-05T17:45:09.719Z,1.50
2022-08-05T17:47:47.010Z,1.48
2022-08-05T17:50:27.651Z,1.48
2022-08-05T17:52:58.833Z,1.40
2022-08-05T17:55:27.261Z,1.50
2022-08-05T17:58:02.014Z,1.20
2022-08-05T18:00:29.738Z,1.67
2022-08-05T18:02:56.932Z,1.25
2022-08-05T18:05:27.900Z,1.55
2022-08-05T18:07:58.229Z,1.40
2022-08-05T18:10:27.588Z,1.58
2022-08-05T18:12:58.992Z,1.33
2022-08-05T18:15:28.504Z,1.52
2022-08-05T18:18:05.561Z,1.60
2022-08-05T18:20:40.339Z,1.42
2022-08-05T18:23:12.206Z,1.70
2022-08-05T18:25:44.870Z,1.23
2022-08-05T18:28:16.127Z,1.63
2022-08-05T18:30:50.962Z,1.42
2022-08-05T18:33:22.506Z,1.50
2022-08-05T18:36:03.215Z,1.60
2022-08-05T18:38:35.838Z,1.60
2022-08-05T18:41:53.496Z,1.48
2022-08-05T18:43:57.084Z,1.40
2022-08-05T18:46:32.546Z,1.80
2022-08-05T18:49:20.383Z,1.33
2022-08-05T18:52:10.754Z,1.52
2022-08-05T18:54:41.451Z,1.80
2022-08-05T18:57:15.502Z,1.88
2022-08-05T19:00:02.204Z,1.60
2022-08-05T19:02:32.891Z,1.38
2022-08-05T19:06:05.574Z,1.63
2022-08-05T19:07:50.308Z,1.30
2022-08-05T19:10:27.990Z,1.52
2022-08-05T19:12:55.403Z,1.58
2022-08-05T19:15:57.582Z,1.60
2022-08-05T19:18:22.420Z,1.48
2022-08-05T19:20:54.086Z,1.70
2022-08-05T19:24:07.341Z,1.48
2022-08-05T19:26:13.859Z,1.30
2022-08-05T19:28:43.141Z,1.40
2022-08-05T19:31:13.178Z,1.60
2022-08-05T19:33:48.694Z,1.85
2022-08-05T19:36:27.200Z,1.33
2022-08-05T19:39:01.117Z,1.90
2022-08-05T19:42:05.427Z,1.40
2022-08-05T19:44:22.458Z,1.55
2022-08-05T19:46:52.029Z,1.50
2022-08-05T19:49:18.891Z,1.75
2022-08-05T19:52:05.013Z,1.50
2022-08-05T19:54:34.796Z,1.30
2022-08-05T19:57:09.326Z,1.42
2022-08-05T20:00:00.547Z,1.48
2022-08-05T20:02:32.255Z,1.60
2022-08-05T20:04:59.854Z,1.77
2022-08-05T20:07:45.776Z,1.40
2022-08-05T20:10:16.640Z,1.48
2022-08-05T20:12:49.183Z,2.13
2022-08-05T20:15:23.201Z,1.85
2022-08-05T20:18:10.873Z,1.70
2022-08-05T20:20:56.009Z,1.83
2022-08-05T20:23:40.432Z,1.67
2022-08-05T20:26:16.412Z,2.00
2022-08-05T20:28:51.444Z,2.03
2022-08-05T20:31:23.095Z,1.67
2022-08-05T20:34:06.621Z,2.00
2022-08-05T20:39:12.842Z,1.58
2022-08-05T20:41:44.175Z,1.60
2022-08-05T20:44:18.413Z,1.75
2022-08-05T20:46:47.041Z,1.77
2022-08-05T20:49:14.329Z,1.50
2022-08-05T20:51:45.246Z,1.63
2022-08-05T20:54:20.501Z,1.50
2022-08-05T20:56:47.651Z,1.50
2022-08-05T20:59:19.091Z,1.70
2022-08-05T21:01:46.949Z,1.90
2022-08-05T21:04:14.121Z,1.95
2022-08-05T21:06:45.594Z,1.63
2022-08-05T21:09:14.222Z,1.70
2022-08-05T21:12:06.812Z,1.80
2022-08-05T21:14:34.638Z,1.35
2022-08-05T21:17:03.153Z,1.70
2022-08-05T21:19:46.500Z,1.95
2022-08-05T21:22:17.690Z,1.30
2022-08-05T21:24:51.437Z,1.60
2022-08-05T21:27:18.763Z,1.65
2022-08-05T21:29:48.210Z,1.50
2022-08-05T21:32:17.135Z,1.95
2022-08-05T21:37:34.025Z,1.58
2022-08-05T21:40:07.182Z,1.40
2022-08-05T21:42:44.938Z,2.05
2022-08-05T21:45:24.422Z,1.50
2022-08-05T21:47:56.054Z,1.90
2022-08-05T21:50:25.191Z,1.20
2022-08-05T21:52:52.247Z,1.67
2022-08-05T21:55:43.091Z,1.40
2022-08-05T21:58:10.485Z,1.67
2022-08-05T22:00:38.761Z,1.73
2022-08-05T22:03:07.348Z,1.50
2022-08-05T22:05:48.781Z,1.38
2022-08-05T22:08:22.559Z,1.48
2022-08-05T22:10:53.331Z,1.23
2022-08-05T22:14:05.539Z,1.30
2022-08-05T22:16:32.214Z,1.65
2022-08-05T22:18:54.046Z,1.60
2022-08-05T22:24:12.967Z,1.40
2022-08-05T22:27:17.435Z,1.48
2022-08-05T22:29:44.401Z,1.58
2022-08-05T22:32:12.752Z,1.40
2022-08-05T22:37:12.622Z,1.58
2022-08-05T22:39:39.507Z,1.58
2022-08-05T22:42:12.455Z,1.83
2022-08-05T22:44:56.563Z,1.95
2022-08-05T22:47:29.285Z,2.05
2022-08-05T22:50:19.513Z,1.83
2022-08-05T22:52:48.879Z,2.30
2022-08-05T22:55:18.980Z,1.77
2022-08-05T22:57:49.079Z,1.77
2022-08-05T23:00:17.798Z,1.60
2022-08-05T23:02:48.071Z,1.77
2022-08-05T23:05:16.369Z,2.15
2022-08-05T23:07:44.935Z,1.70
2022-08-05T23:10:12.895Z,1.90
2022-08-05T23:12:39.805Z,1.90
2022-08-05T23:15:10.632Z,2.13
2022-08-05T23:18:01.636Z,2.00
2022-08-05T23:20:25.904Z,2.15
2022-08-05T23:22:56.221Z,2.10
2022-08-05T23:25:51.258Z,2.92
2022-08-05T23:28:12.613Z,2.00
2022-08-05T23:30:43.391Z,1.90
2022-08-05T23:33:21.970Z,2.17
2022-08-05T23:35:56.041Z,1.90
2022-08-05T23:38:24.103Z,2.22
2022-08-05T23:40:52.645Z,2.20
2022-08-05T23:43:25.335Z,1.80
2022-08-05T23:46:04.873Z,1.98
2022-08-05T23:49:00.769Z,1.88
2022-08-05T23:51:53.970Z,2.22
2022-08-05T23:54:36.499Z,2.17
2022-08-05T23:57:06.085Z,1.77
2022-08-05T23:59:37.668Z,1.77
